首页
METAR-TAF:

METAR-TAF

机场 :

金斯顿, 安大略省, 加拿大

纬度: 44-13N, 经度: 076-36W, 海拔: 93米

当前天气观测

该预报发布于24分钟前的15:00 UTC
风速5节,风向
温度 18°C
湿度 73%
气压 1017 hPa
能見度: 24.1公里
少量云层高于3000英尺
少量云层高于14000英尺
散云层高于25000英尺

METAR: CYGK 171500Z 19005KT 15SM FEW030 FEW140 SCT250 18/13 A3003 RMK CU1AC1CI2 AC TR SLP172 DENSITY ALT 700FT

时间: 11:24 (15:24 UTC)

预报

该预报发布于1小时和46分钟前的13:38 UTC
预报有效从17日的 14点(UTC)到 18日的 02点(UTC)
风速6节,风向南转南东
能見度: 10公里
少量云层高于1500英尺
散云层高于25000英尺
成为
从 17日的 15点(UTC)到 17日的 17点(UTC)
风速8节,风向
成为
从 17日的 21点(UTC)到 17日的 23点(UTC)
风速3节,风向多变

TAF: CYGK 171338Z 1714/1802 15006KT P6SM FEW015 SCT250 BECMG 1715/1717 18008KT BECMG 1721/1723 VRB03KT RMK NXT FCST BY 172000Z

超过4000个机场的气象观测和天气预报(METAR&TAF报告)。

可查询的气象台以黄色和红色小点在地图上表示。

将鼠标移到小点上方,可查看气象台名称。

然后点击查看天气观测和预报。

如需切换地图:点击带黑十字的绿色按钮放大地图;点击带横线的绿色按钮缩小地图;或者点击绿色箭头查看邻近地区的地图。


METAR-TAF: